createdAt,value
2018-11-13T00:00:28.833Z,87.10
2018-11-13T00:02:58.598Z,87.97
2018-11-13T00:05:28.135Z,87.30
2018-11-13T00:07:57.532Z,83.60
2018-11-13T00:10:26.824Z,82.70
2018-11-13T00:12:56.099Z,87.17
2018-11-13T00:15:25.336Z,87.60
2018-11-13T00:17:54.693Z,88.57
2018-11-13T00:20:24.047Z,88.43
2018-11-13T00:22:53.466Z,87.77
2018-11-13T00:25:22.786Z,87.20
2018-11-13T00:27:52.050Z,89.13
2018-11-13T00:30:24.036Z,88.53
2018-11-13T00:32:53.268Z,88.37
2018-11-13T00:35:23.111Z,89.13
2018-11-13T00:37:53.140Z,91.07
2018-11-13T00:40:22.371Z,86.87
2018-11-13T00:42:51.637Z,89.93
2018-11-13T00:45:20.925Z,95.57
2018-11-13T00:47:50.914Z,94.30
2018-11-13T00:50:21.352Z,95.53
2018-11-13T00:52:50.985Z,95.57
2018-11-13T00:55:20.554Z,95.83
2018-11-13T00:57:49.842Z,90.17
2018-11-13T01:00:20.573Z,89.60
2018-11-13T01:02:49.777Z,88.73
2018-11-13T01:05:21.035Z,91.37
2018-11-13T01:07:51.396Z,83.30
2018-11-13T01:10:21.218Z,93.13
2018-11-13T01:12:50.541Z,89.47
2018-11-13T01:15:20.756Z,87.30
2018-11-13T01:17:50.399Z,94.00
2018-11-13T01:20:20.042Z,92.67
2018-11-13T01:22:49.283Z,90.60
2018-11-13T01:25:18.653Z,88.83
2018-11-13T01:27:47.989Z,91.83
2018-11-13T01:30:17.777Z,96.63
2018-11-13T01:32:47.555Z,95.47
2018-11-13T01:35:17.912Z,94.53
2018-11-13T01:37:47.496Z,89.90
2018-11-13T01:40:18.907Z,89.73
2018-11-13T01:42:48.152Z,88.63
2018-11-13T01:45:18.476Z,87.93
2018-11-13T01:47:47.752Z,91.87
2018-11-13T01:50:17.884Z,89.03
2018-11-13T01:52:47.867Z,90.43
2018-11-13T01:55:17.389Z,86.90
2018-11-13T01:57:47.136Z,86.77
2018-11-13T02:00:18.456Z,90.87
2018-11-13T02:02:48.832Z,92.63
2018-11-13T02:05:19.434Z,85.43
2018-11-13T02:07:49.122Z,81.50
2018-11-13T02:10:18.724Z,78.40
2018-11-13T02:12:48.484Z,87.60
2018-11-13T02:15:18.151Z,83.20
2018-11-13T02:17:47.425Z,81.40
2018-11-13T02:20:18.235Z,82.63
2018-11-13T02:22:47.480Z,86.37
2018-11-13T02:25:17.852Z,87.00
2018-11-13T02:27:47.514Z,81.80
2018-11-13T02:30:18.059Z,86.80
2018-11-13T02:32:47.876Z,88.77
2018-11-13T02:35:18.430Z,83.87
2018-11-13T02:37:48.098Z,78.60
2018-11-13T02:40:17.512Z,80.27
2018-11-13T02:42:46.897Z,84.37
2018-11-13T02:45:18.370Z,88.40
2018-11-13T02:47:47.615Z,81.83
2018-11-13T02:50:18.233Z,88.80
2018-11-13T02:52:47.521Z,87.47
2018-11-13T02:55:16.916Z,84.07
2018-11-13T02:57:47.324Z,80.63
2018-11-13T03:00:18.466Z,82.17
2018-11-13T03:02:47.853Z,84.90
2018-11-13T03:05:18.404Z,83.60
2018-11-13T03:07:47.678Z,76.40
2018-11-13T03:10:18.149Z,79.77
2018-11-13T03:12:47.482Z,79.63
2018-11-13T03:15:18.916Z,82.67
2018-11-13T03:17:48.144Z,82.43
2018-11-13T03:20:18.595Z,81.27
2018-11-13T03:22:48.537Z,77.67
2018-11-13T03:25:19.183Z,78.37
2018-11-13T03:27:48.423Z,79.90
2018-11-13T03:30:20.299Z,87.67
2018-11-13T03:32:49.710Z,81.33
2018-11-13T03:35:18.980Z,82.43
2018-11-13T03:37:48.244Z,81.03
2018-11-13T03:40:18.094Z,87.50
2018-11-13T03:42:48.253Z,78.13
2018-11-13T03:45:17.852Z,82.17
2018-11-13T03:47:47.138Z,87.27
2018-11-13T03:50:18.437Z,84.07
2018-11-13T03:52:48.134Z,82.80
2018-11-13T03:55:17.935Z,85.80
2018-11-13T03:57:47.843Z,87.67
2018-11-13T04:00:19.901Z,85.77
2018-11-13T04:02:50.155Z,81.57
2018-11-13T04:05:20.486Z,75.00
2018-11-13T04:07:53.855Z,78.63
2018-11-13T04:10:23.985Z,75.10
2018-11-13T04:12:53.256Z,72.87
2018-11-13T04:15:23.698Z,68.33
2018-11-13T04:17:53.057Z,74.27
2018-11-13T04:20:23.064Z,66.87
2018-11-13T04:22:52.308Z,68.73
2018-11-13T04:25:21.986Z,70.13
2018-11-13T04:27:51.240Z,69.97
2018-11-13T04:30:20.499Z,63.47
2018-11-13T04:32:49.780Z,66.80
2018-11-13T04:35:19.389Z,63.40
2018-11-13T04:37:48.620Z,61.33
2018-11-13T04:40:19.109Z,64.40
2018-11-13T04:42:49.722Z,58.37
2018-11-13T04:45:21.168Z,58.73
2018-11-13T04:47:50.964Z,57.10
2018-11-13T04:50:21.182Z,54.03
2018-11-13T04:52:50.450Z,56.80
2018-11-13T04:55:20.744Z,57.30
2018-11-13T04:57:50.640Z,56.27
2018-11-13T05:00:21.676Z,56.50
2018-11-13T05:02:51.029Z,53.07
2018-11-13T05:05:21.191Z,53.90
2018-11-13T05:07:52.340Z,54.63
2018-11-13T05:10:21.717Z,56.43
2018-11-13T05:12:51.005Z,52.83
2018-11-13T05:15:20.272Z,53.60
2018-11-13T05:17:49.556Z,53.23
2018-11-13T05:20:19.048Z,53.03
2018-11-13T05:22:48.357Z,55.67
2018-11-13T05:25:19.164Z,55.93
2018-11-13T05:27:48.695Z,57.70
2018-11-13T05:30:19.401Z,52.70
2018-11-13T05:32:48.809Z,50.57
2018-11-13T05:35:19.364Z,49.33
2018-11-13T05:37:49.089Z,54.27
2018-11-13T05:40:20.719Z,52.57
2018-11-13T05:42:49.994Z,54.00
2018-11-13T05:45:20.744Z,54.50
2018-11-13T05:47:50.218Z,55.33
2018-11-13T05:50:20.056Z,54.87
2018-11-13T05:52:51.310Z,55.13
2018-11-13T05:55:20.688Z,55.10
2018-11-13T05:57:50.423Z,57.87
2018-11-13T06:00:22.944Z,57.63
2018-11-13T06:02:52.254Z,58.73
2018-11-13T06:05:21.744Z,52.00
2018-11-13T06:07:51.039Z,60.83
2018-11-13T06:10:20.281Z,55.83
2018-11-13T06:12:49.768Z,58.33
2018-11-13T06:15:18.982Z,56.73
2018-11-13T06:17:48.203Z,56.80
2018-11-13T06:20:17.743Z,55.77
2018-11-13T06:22:46.995Z,59.60
2018-11-13T06:25:17.464Z,55.87
2018-11-13T06:27:47.652Z,59.17
2018-11-13T06:30:19.558Z,60.40
2018-11-13T06:32:49.353Z,61.87
2018-11-13T06:35:19.327Z,54.17
2018-11-13T06:37:48.578Z,57.97
2018-11-13T06:40:17.991Z,58.90
2018-11-13T06:42:47.883Z,61.97
2018-11-13T06:45:18.748Z,58.77
2018-11-13T06:47:48.646Z,61.67
2018-11-13T06:50:17.963Z,63.33
2018-11-13T06:52:48.170Z,63.30
2018-11-13T06:55:22.731Z,65.20
2018-11-13T06:57:52.046Z,67.13
2018-11-13T07:00:21.303Z,64.50
2018-11-13T07:02:50.620Z,65.83
2018-11-13T07:05:20.303Z,63.60
2018-11-13T07:07:49.608Z,61.63
2018-11-13T07:10:20.444Z,67.07
2018-11-13T07:12:50.549Z,65.37
2018-11-13T07:15:21.197Z,60.57
2018-11-13T07:17:51.913Z,66.67
2018-11-13T07:20:22.440Z,66.27
2018-11-13T07:22:51.770Z,65.30
2018-11-13T07:25:21.505Z,53.27
2018-11-13T07:27:51.337Z,59.13
2018-11-13T07:30:21.376Z,63.40
2018-11-13T07:32:50.823Z,60.67
2018-11-13T07:35:20.792Z,58.20
2018-11-13T07:37:52.821Z,56.30
2018-11-13T07:40:22.242Z,61.53
2018-11-13T07:42:51.723Z,55.27
2018-11-13T07:45:21.276Z,57.10
2018-11-13T07:47:51.083Z,57.40
2018-11-13T07:50:20.318Z,56.60
2018-11-13T07:52:49.557Z,52.00
2018-11-13T07:55:18.837Z,49.37
2018-11-13T07:57:48.236Z,53.80
2018-11-13T08:00:19.814Z,48.40
2018-11-13T08:02:50.369Z,48.13
2018-11-13T08:05:19.651Z,50.33
2018-11-13T08:07:49.064Z,47.60
2018-11-13T08:10:18.568Z,49.93
2018-11-13T08:12:47.895Z,45.20
2018-11-13T08:15:18.353Z,47.20
2018-11-13T08:17:47.592Z,42.77
2018-11-13T08:20:17.119Z,46.77
2018-11-13T08:22:46.468Z,46.87
2018-11-13T08:25:15.740Z,41.90
2018-11-13T08:27:45.063Z,41.33
2018-11-13T08:30:15.665Z,40.37
2018-11-13T08:32:45.680Z,40.20
2018-11-13T08:35:15.462Z,38.87
2018-11-13T08:37:44.729Z,41.03
2018-11-13T08:40:15.258Z,40.83
2018-11-13T08:42:45.245Z,39.73
2018-11-13T08:45:15.268Z,41.97
2018-11-13T08:47:44.593Z,36.47
2018-11-13T08:50:14.647Z,39.27
2018-11-13T08:52:45.226Z,37.90
2018-11-13T08:55:14.735Z,35.13
2018-11-13T08:57:44.102Z,32.33
2018-11-13T09:00:15.988Z,33.87
2018-11-13T09:02:46.177Z,33.37
2018-11-13T09:05:15.916Z,34.73
2018-11-13T09:07:45.339Z,30.23
2018-11-13T09:10:16.104Z,29.47
2018-11-13T09:12:46.367Z,28.73
2018-11-13T09:15:17.079Z,29.13
2018-11-13T09:17:46.373Z,29.47
2018-11-13T09:20:16.823Z,28.17
2018-11-13T09:22:46.157Z,26.30
2018-11-13T09:25:18.632Z,29.33
2018-11-13T09:27:48.886Z,27.00
2018-11-13T09:30:20.615Z,27.07
2018-11-13T09:32:50.081Z,28.60
2018-11-13T09:35:19.821Z,24.53
2018-11-13T09:37:49.078Z,25.77
2018-11-13T09:40:20.452Z,24.57
2018-11-13T09:42:51.907Z,25.43
2018-11-13T09:45:21.999Z,31.00
2018-11-13T09:47:51.275Z,27.60
2018-11-13T09:50:21.425Z,22.40
2018-11-13T09:52:51.873Z,25.67
2018-11-13T09:55:22.288Z,24.63
2018-11-13T09:57:52.044Z,23.50
2018-11-13T10:00:23.728Z,22.87
2018-11-13T10:02:55.589Z,21.63
2018-11-13T10:05:25.197Z,23.90
2018-11-13T10:07:55.337Z,22.30
2018-11-13T10:10:25.393Z,23.20
2018-11-13T10:12:54.628Z,22.03
2018-11-13T10:15:27.532Z,22.07
2018-11-13T10:17:56.958Z,21.73
2018-11-13T10:20:26.225Z,21.77
2018-11-13T10:22:56.584Z,21.53
2018-11-13T10:25:25.853Z,21.60
2018-11-13T10:27:55.204Z,20.87
2018-11-13T10:30:25.531Z,22.37
2018-11-13T10:32:55.206Z,21.53
2018-11-13T10:35:25.961Z,20.10
2018-11-13T10:37:55.233Z,20.13
2018-11-13T10:40:24.609Z,19.67
2018-11-13T10:42:54.163Z,19.07
2018-11-13T10:45:26.767Z,19.33
2018-11-13T10:47:56.257Z,17.43
2018-11-13T10:50:26.565Z,17.60
2018-11-13T10:52:55.988Z,15.80
2018-11-13T10:55:25.332Z,15.83
2018-11-13T10:57:54.756Z,15.47
2018-11-13T11:00:28.473Z,14.73
2018-11-13T11:03:03.091Z,13.60
2018-11-13T11:05:32.285Z,12.93
2018-11-13T11:08:01.582Z,13.07
2018-11-13T11:10:30.954Z,12.70
2018-11-13T11:13:00.231Z,11.70
2018-11-13T11:15:29.431Z,11.60
2018-11-13T11:18:05.464Z,11.30
2018-11-13T11:20:34.694Z,12.03
2018-11-13T11:23:03.935Z,13.43
2018-11-13T11:25:33.183Z,11.03
2018-11-13T11:28:02.462Z,10.43
2018-11-13T11:30:32.445Z,10.60
2018-11-13T11:33:01.868Z,13.70
2018-11-13T11:35:31.230Z,11.70
2018-11-13T11:38:00.487Z,13.10
2018-11-13T11:40:29.728Z,10.10
2018-11-13T11:42:59.017Z,10.23
2018-11-13T11:45:28.268Z,10.73
2018-11-13T11:47:57.510Z,8.40
2018-11-13T11:50:26.764Z,8.47
2018-11-13T11:52:56.093Z,10.17
2018-11-13T11:55:25.349Z,8.63
2018-11-13T11:57:54.601Z,8.67
2018-11-13T12:00:31.871Z,10.70
2018-11-13T12:03:01.172Z,7.97
2018-11-13T12:05:30.465Z,7.33
2018-11-13T12:07:59.759Z,5.77
2018-11-13T12:10:29.158Z,10.43
2018-11-13T12:12:58.467Z,7.10
2018-11-13T12:15:27.728Z,5.70
2018-11-13T12:17:56.996Z,7.80
2018-11-13T12:20:26.367Z,4.40
2018-11-13T12:22:55.782Z,7.23
2018-11-13T12:25:25.062Z,10.13
2018-11-13T12:27:54.409Z,7.70
2018-11-13T12:30:24.386Z,7.50
2018-11-13T12:32:53.666Z,8.27
2018-11-13T12:35:23.322Z,8.30
2018-11-13T12:37:52.564Z,7.30
2018-11-13T12:40:23.234Z,9.87
2018-11-13T12:42:52.642Z,9.63
2018-11-13T12:45:22.012Z,10.17
2018-11-13T12:47:51.288Z,10.47
2018-11-13T12:50:21.196Z,10.80
2018-11-13T12:52:50.523Z,11.07
2018-11-13T12:55:21.269Z,10.20
2018-11-13T12:57:50.616Z,10.03
2018-11-13T13:00:22.181Z,10.70
2018-11-13T13:02:52.097Z,9.73
2018-11-13T13:05:21.490Z,13.77
2018-11-13T13:07:50.729Z,11.10
2018-11-13T13:10:20.783Z,9.23
2018-11-13T13:12:50.072Z,8.90
2018-11-13T13:15:19.842Z,10.97
2018-11-13T13:17:49.091Z,12.87
2018-11-13T13:20:19.887Z,13.07
2018-11-13T13:22:49.993Z,18.03
2018-11-13T13:25:20.176Z,13.43
2018-11-13T13:27:49.448Z,10.60
2018-11-13T13:30:20.263Z,11.33
2018-11-13T13:32:49.800Z,9.63
2018-11-13T13:35:59.268Z,15.53
2018-11-13T13:38:28.761Z,10.60
2018-11-13T13:40:59.969Z,15.00
2018-11-13T13:43:30.210Z,11.53
2018-11-13T13:45:59.469Z,13.97
2018-11-13T13:48:29.040Z,9.13
2018-11-13T13:50:58.291Z,16.43
2018-11-13T13:53:28.129Z,14.63
2018-11-13T13:55:57.378Z,8.00
2018-11-13T13:58:26.854Z,15.73
2018-11-13T14:00:57.146Z,14.07
2018-11-13T14:03:26.340Z,8.67
2018-11-13T14:05:55.641Z,10.13
2018-11-13T14:08:24.880Z,12.93
2018-11-13T14:10:54.315Z,12.90
2018-11-13T14:13:23.527Z,16.87
2018-11-13T14:15:52.783Z,16.47
2018-11-13T14:18:22.007Z,11.50
2018-11-13T14:20:51.289Z,12.17
2018-11-13T14:23:20.577Z,9.93
2018-11-13T14:25:49.872Z,12.53
2018-11-13T14:28:19.155Z,14.87
2018-11-13T14:30:48.494Z,11.23
2018-11-13T14:33:17.744Z,12.30
2018-11-13T14:35:47.080Z,12.87
2018-11-13T14:38:16.401Z,10.60
2018-11-13T14:40:46.828Z,15.67
2018-11-13T14:43:16.510Z,15.40
2018-11-13T14:45:46.036Z,15.80
2018-11-13T14:48:15.323Z,14.03
2018-11-13T14:50:44.798Z,12.20
2018-11-13T14:53:14.267Z,13.93
2018-11-13T14:55:44.681Z,12.60
2018-11-13T14:58:15.188Z,13.13
2018-11-13T15:00:45.495Z,14.90
2018-11-13T15:03:16.236Z,12.17
2018-11-13T15:05:45.508Z,17.20
2018-11-13T15:08:14.816Z,13.77
2018-11-13T15:10:45.764Z,15.03
2018-11-13T15:13:15.337Z,14.57
2018-11-13T15:15:44.737Z,18.00
2018-11-13T15:18:14.113Z,10.70
2018-11-13T15:20:43.881Z,14.27
2018-11-13T15:23:13.769Z,15.23
2018-11-13T15:25:43.092Z,17.53
2018-11-13T15:28:13.457Z,15.40
2018-11-13T15:30:44.430Z,14.63
2018-11-13T15:33:16.854Z,16.23
2018-11-13T15:35:46.121Z,15.53
2018-11-13T15:38:15.494Z,14.30
2018-11-13T15:40:45.172Z,13.53
2018-11-13T15:43:14.472Z,13.13
2018-11-13T15:45:43.746Z,20.73
2018-11-13T15:48:13.927Z,17.33
2018-11-13T15:50:43.265Z,13.37
2018-11-13T15:53:12.632Z,14.23
2018-11-13T15:55:41.948Z,22.97
2018-11-13T15:58:11.233Z,14.10
2018-11-13T16:00:41.793Z,14.10
2018-11-13T16:03:18.126Z,12.33
2018-11-13T16:05:48.731Z,14.50
2018-11-13T16:08:18.175Z,19.67
2018-11-13T16:10:47.534Z,15.23
2018-11-13T16:13:16.820Z,13.30
2018-11-13T16:15:46.361Z,14.67
2018-11-13T16:18:18.147Z,13.67
2018-11-13T16:20:47.433Z,13.93
2018-11-13T16:23:16.705Z,16.07
2018-11-13T16:25:45.985Z,10.57
2018-11-13T16:28:15.281Z,17.17
2018-11-13T16:30:44.680Z,13.90
2018-11-13T16:33:13.895Z,12.93
2018-11-13T16:35:43.328Z,12.93
2018-11-13T16:38:13.458Z,10.83
2018-11-13T16:40:42.738Z,17.77
2018-11-13T16:43:12.017Z,9.73
2018-11-13T16:45:41.303Z,18.27
2018-11-13T16:48:10.790Z,12.80
2018-11-13T16:50:41.271Z,12.60
2018-11-13T16:53:10.584Z,14.30
2018-11-13T16:55:45.322Z,15.97
2018-11-13T16:58:15.741Z,14.13
2018-11-13T17:00:45.838Z,16.30
2018-11-13T17:03:14.994Z,9.80
2018-11-13T17:05:44.335Z,16.00
2018-11-13T17:08:13.547Z,13.93
2018-11-13T17:10:43.668Z,13.10
2018-11-13T17:13:12.923Z,15.40
2018-11-13T17:15:42.209Z,13.87
2018-11-13T17:18:13.290Z,17.47
2018-11-13T17:20:40.791Z,15.33
2018-11-13T17:23:10.216Z,15.00
2018-11-13T17:25:39.983Z,14.43
2018-11-13T17:28:09.300Z,17.90
2018-11-13T17:30:39.396Z,18.90
2018-11-13T17:33:09.883Z,17.43
2018-11-13T17:35:39.226Z,15.00
2018-11-13T17:38:08.627Z,16.93
2018-11-13T17:40:38.869Z,13.00
2018-11-13T17:43:08.715Z,13.77
2018-11-13T17:45:39.289Z,17.83
2018-11-13T17:48:09.695Z,15.33
2018-11-13T17:50:43.045Z,15.77
2018-11-13T17:53:13.000Z,14.30
2018-11-13T17:55:42.441Z,15.40
2018-11-13T17:58:13.452Z,11.10
2018-11-13T18:00:44.744Z,19.17
2018-11-13T18:03:14.910Z,15.57
2018-11-13T18:05:44.943Z,13.83
2018-11-13T18:08:14.390Z,25.20
2018-11-13T18:10:45.654Z,20.63
2018-11-13T18:13:15.061Z,17.00
2018-11-13T18:15:44.860Z,11.77
2018-11-13T18:18:14.104Z,16.07
2018-11-13T18:20:43.367Z,24.40
2018-11-13T18:23:12.663Z,20.23
2018-11-13T18:25:41.976Z,20.33
2018-11-13T18:28:11.443Z,14.97
2018-11-13T18:30:40.912Z,17.63
2018-11-13T18:33:11.095Z,15.87
2018-11-13T18:35:41.371Z,16.63
2018-11-13T18:38:12.664Z,16.77
2018-11-13T18:40:42.248Z,15.60
2018-11-13T18:43:11.581Z,15.33
2018-11-13T18:45:43.540Z,15.27
2018-11-13T18:48:13.076Z,12.53
2018-11-13T18:50:44.330Z,16.77
2018-11-13T18:53:13.988Z,18.53
2018-11-13T18:55:43.354Z,18.47
2018-11-13T18:58:12.886Z,14.07
2018-11-13T19:00:42.506Z,21.07
2018-11-13T19:03:13.032Z,14.33
2018-11-13T19:05:42.749Z,17.97
2018-11-13T19:08:12.388Z,18.77
2018-11-13T19:10:46.502Z,18.67
2018-11-13T19:13:18.734Z,20.07
2018-11-13T19:15:49.823Z,14.53
2018-11-13T19:18:19.999Z,17.77
2018-11-13T19:20:49.349Z,17.70
2018-11-13T19:23:20.048Z,16.87
2018-11-13T19:25:49.408Z,17.57
2018-11-13T19:28:18.691Z,20.13
2018-11-13T19:30:48.019Z,19.33
2018-11-13T19:33:17.489Z,16.37
2018-11-13T19:35:48.378Z,16.37
2018-11-13T19:38:17.608Z,18.90
2018-11-13T19:40:46.912Z,16.60
2018-11-13T19:43:16.540Z,15.97
2018-11-13T19:45:46.014Z,14.30
2018-11-13T19:48:15.433Z,10.83
2018-11-13T19:50:44.734Z,16.77
2018-11-13T19:53:14.110Z,17.20
2018-11-13T19:55:43.350Z,15.20
2018-11-13T19:58:12.641Z,16.17
2018-11-13T20:00:41.931Z,14.73
2018-11-13T20:03:11.682Z,18.87
2018-11-13T20:05:40.940Z,18.07
2018-11-13T20:08:10.292Z,23.50
2018-11-13T20:10:40.171Z,16.00
2018-11-13T20:13:10.348Z,19.43
2018-11-13T20:15:40.047Z,23.10
2018-11-13T20:18:09.335Z,23.73
2018-11-13T20:20:38.681Z,21.17
2018-11-13T20:23:08.811Z,18.83
2018-11-13T20:25:38.161Z,21.27
2018-11-13T20:28:07.449Z,14.67
2018-11-13T20:30:41.113Z,15.83
2018-11-13T20:33:10.492Z,27.97
2018-11-13T20:35:40.384Z,18.90
2018-11-13T20:38:09.677Z,19.53
2018-11-13T20:40:39.205Z,22.37
2018-11-13T20:43:10.088Z,20.57
2018-11-13T20:45:39.421Z,22.60
2018-11-13T20:48:08.710Z,22.00
2018-11-13T20:50:37.981Z,21.33
2018-11-13T20:53:07.780Z,23.00
2018-11-13T20:55:37.039Z,20.60
2018-11-13T20:58:06.852Z,21.43
2018-11-13T21:00:36.909Z,16.97
2018-11-13T21:03:06.785Z,20.37
2018-11-13T21:05:36.220Z,20.73
2018-11-13T21:08:06.296Z,19.43
2018-11-13T21:10:37.459Z,24.00
2018-11-13T21:13:07.102Z,23.93
2018-11-13T21:15:36.347Z,24.30
2018-11-13T21:18:05.935Z,27.57
2018-11-13T21:20:35.225Z,20.80
2018-11-13T21:23:04.589Z,25.53
2018-11-13T21:25:33.842Z,28.93
2018-11-13T21:28:03.170Z,26.97
2018-11-13T21:30:32.498Z,24.80
2018-11-13T21:33:01.964Z,21.13
2018-11-13T21:35:31.292Z,23.00
2018-11-13T21:38:00.528Z,24.60
2018-11-13T21:40:29.813Z,24.87
2018-11-13T21:42:59.283Z,21.67
2018-11-13T21:45:29.219Z,19.87
2018-11-13T21:47:58.472Z,19.80
2018-11-13T21:50:28.818Z,20.33
2018-11-13T21:52:58.195Z,20.80
2018-11-13T21:55:28.599Z,23.83
2018-11-13T21:58:08.165Z,19.23
2018-11-13T22:00:38.210Z,25.37
2018-11-13T22:03:08.567Z,22.40
2018-11-13T22:05:38.919Z,18.57
2018-11-13T22:08:08.276Z,19.77
2018-11-13T22:10:37.416Z,20.40
2018-11-13T22:13:06.957Z,25.80
2018-11-13T22:15:36.051Z,24.37
2018-11-13T22:18:05.676Z,21.33
2018-11-13T22:20:34.997Z,27.90
2018-11-13T22:23:04.248Z,21.97
2018-11-13T22:25:33.495Z,27.17
2018-11-13T22:28:02.843Z,22.17
2018-11-13T22:30:32.756Z,19.40
2018-11-13T22:33:02.033Z,27.23
2018-11-13T22:35:31.253Z,21.27
2018-11-13T22:38:00.507Z,24.63
2018-11-13T22:40:29.813Z,25.87
2018-11-13T22:42:59.997Z,27.10
2018-11-13T22:45:29.955Z,23.97
2018-11-13T22:47:59.528Z,22.47
2018-11-13T22:50:31.190Z,20.33
2018-11-13T22:53:00.555Z,28.97
2018-11-13T22:55:30.016Z,31.70
2018-11-13T22:58:00.349Z,27.00
2018-11-13T23:00:39.717Z,29.40
2018-11-13T23:03:11.290Z,30.10
2018-11-13T23:05:40.827Z,27.77
2018-11-13T23:08:11.481Z,26.60
2018-11-13T23:10:40.819Z,28.67
2018-11-13T23:13:10.074Z,31.10
2018-11-13T23:15:39.657Z,28.27
2018-11-13T23:18:09.370Z,32.03
2018-11-13T23:20:39.283Z,36.60
2018-11-13T23:23:08.607Z,35.70
2018-11-13T23:25:38.088Z,34.53
2018-11-13T23:28:07.387Z,39.27
2018-11-13T23:30:36.654Z,35.83
2018-11-13T23:33:06.880Z,32.37
2018-11-13T23:35:35.648Z,36.13
2018-11-13T23:38:05.053Z,43.77
2018-11-13T23:40:34.308Z,38.37
2018-11-13T23:43:03.607Z,35.80
2018-11-13T23:45:32.910Z,45.57
2018-11-13T23:48:02.455Z,43.23
2018-11-13T23:50:31.409Z,40.00
2018-11-13T23:53:00.672Z,48.47
2018-11-13T23:55:30.061Z,42.60
2018-11-13T23:57:59.280Z,51.47
